createdAt,value
2023-04-14T00:01:13.712Z,70.90
2023-04-14T00:03:35.358Z,72.56
2023-04-14T00:05:56.895Z,72.38
2023-04-14T00:08:18.324Z,72.30
2023-04-14T00:10:39.766Z,73.46
2023-04-14T00:13:02.127Z,73.28
2023-04-14T00:15:23.827Z,73.03
2023-04-14T00:17:45.301Z,73.47
2023-04-14T00:20:08.335Z,73.44
2023-04-14T00:22:30.236Z,72.66
2023-04-14T00:24:52.109Z,72.21
2023-04-14T00:27:13.574Z,72.27
2023-04-14T00:29:35.032Z,71.73
2023-04-14T00:31:56.466Z,71.92
2023-04-14T00:34:17.944Z,71.37
2023-04-14T00:36:39.573Z,71.90
2023-04-14T00:39:01.267Z,71.86
2023-04-14T00:41:24.799Z,72.90
2023-04-14T00:43:46.315Z,72.09
2023-04-14T00:46:07.947Z,72.16
2023-04-14T00:48:29.553Z,71.79
2023-04-14T00:50:51.489Z,72.46
2023-04-14T00:53:13.380Z,71.65
2023-04-14T00:55:35.943Z,71.70
2023-04-14T00:57:57.530Z,71.57
2023-04-14T01:00:19.744Z,72.01
2023-04-14T01:02:41.527Z,72.30
2023-04-14T01:05:03.707Z,71.91
2023-04-14T01:07:27.846Z,72.10
2023-04-14T01:09:50.624Z,72.17
2023-04-14T01:12:33.260Z,71.98
2023-04-14T01:15:09.888Z,72.60
2023-04-14T01:17:40.693Z,72.49
2023-04-14T01:20:28.358Z,73.06
2023-04-14T01:22:55.384Z,72.54
2023-04-14T01:25:16.812Z,72.31
2023-04-14T01:28:04.438Z,74.83
2023-04-14T01:30:55.731Z,74.66
2023-04-14T01:33:22.591Z,74.19
2023-04-14T01:35:55.464Z,73.90
2023-04-14T01:38:29.670Z,73.21
2023-04-14T01:40:54.168Z,73.64
2023-04-14T01:43:22.083Z,73.25
2023-04-14T01:45:50.553Z,72.84
2023-04-14T01:48:12.766Z,72.80
2023-04-14T01:50:37.290Z,72.65
2023-04-14T01:53:00.320Z,76.00
2023-04-14T01:55:25.627Z,75.86
2023-04-14T01:57:50.947Z,74.59
2023-04-14T02:00:14.340Z,75.28
2023-04-14T02:02:37.974Z,75.49
2023-04-14T02:05:00.454Z,75.69
2023-04-14T02:07:23.318Z,76.25
2023-04-14T02:09:45.977Z,76.67
2023-04-14T02:12:09.262Z,77.17
2023-04-14T02:14:32.262Z,77.45
2023-04-14T02:16:57.257Z,78.53
2023-04-14T02:19:21.038Z,79.20
2023-04-14T02:21:42.704Z,77.84
2023-04-14T02:24:04.417Z,77.71
2023-04-14T02:26:30.523Z,76.83
2023-04-14T02:29:07.201Z,76.25
2023-04-14T02:31:32.107Z,76.32
2023-04-14T02:33:55.126Z,76.30
2023-04-14T02:36:24.891Z,75.63
2023-04-14T02:38:52.399Z,75.47
2023-04-14T02:41:22.258Z,78.11
2023-04-14T02:43:49.145Z,77.17
2023-04-14T02:46:16.337Z,76.14
2023-04-14T02:48:42.973Z,76.03
2023-04-14T02:51:08.288Z,75.71
2023-04-14T02:53:30.229Z,77.39
2023-04-14T02:55:54.321Z,79.96
2023-04-14T02:58:16.927Z,77.88
2023-04-14T03:00:40.620Z,77.41
2023-04-14T03:03:03.706Z,78.39
2023-04-14T03:05:26.315Z,80.87
2023-04-14T03:07:50.839Z,78.83
2023-04-14T03:10:12.585Z,78.88
2023-04-14T03:12:36.009Z,80.88
2023-04-14T03:14:59.374Z,79.58
2023-04-14T03:17:22.142Z,78.47
2023-04-14T03:19:47.982Z,77.86
2023-04-14T03:22:11.205Z,77.48
2023-04-14T03:24:34.877Z,77.22
2023-04-14T03:27:04.858Z,76.75
2023-04-14T03:29:29.116Z,76.64
2023-04-14T03:31:52.013Z,76.15
2023-04-14T03:34:16.312Z,75.58
2023-04-14T03:36:39.483Z,75.48
2023-04-14T03:39:04.005Z,75.62
2023-04-14T03:41:27.614Z,75.24
2023-04-14T03:43:54.466Z,75.57
2023-04-14T03:46:16.036Z,74.79
2023-04-14T03:48:42.739Z,76.10
2023-04-14T03:51:06.891Z,75.83
2023-04-14T03:53:30.223Z,76.46
2023-04-14T03:55:56.356Z,77.68
2023-04-14T03:58:18.744Z,77.00
2023-04-14T04:00:40.757Z,76.38
2023-04-14T04:03:03.037Z,76.07
2023-04-14T04:05:24.878Z,75.91
2023-04-14T04:07:46.653Z,76.27
2023-04-14T04:10:09.473Z,76.22
2023-04-14T04:12:32.097Z,76.01
2023-04-14T04:14:53.636Z,78.00
2023-04-14T04:17:18.461Z,79.98
2023-04-14T04:19:43.447Z,79.92
2023-04-14T04:22:06.542Z,79.09
2023-04-14T04:24:31.727Z,78.52
2023-04-14T04:26:54.298Z,78.09
2023-04-14T04:29:15.904Z,78.98
2023-04-14T04:31:37.336Z,78.06
2023-04-14T04:33:59.326Z,77.73
2023-04-14T04:36:21.664Z,77.11
2023-04-14T04:38:43.164Z,77.54
2023-04-14T04:41:04.705Z,76.62
2023-04-14T04:43:26.175Z,77.46
2023-04-14T04:46:33.126Z,79.27
2023-04-14T04:48:56.729Z,78.41
2023-04-14T04:51:19.061Z,77.56
2023-04-14T04:53:40.585Z,76.80
2023-04-14T04:56:02.545Z,77.13
2023-04-14T04:58:24.014Z,77.41
2023-04-14T05:00:45.479Z,78.81
2023-04-14T05:03:07.141Z,79.82
2023-04-14T05:05:28.843Z,79.29
2023-04-14T05:07:50.332Z,78.45
2023-04-14T05:10:12.298Z,78.18
2023-04-14T05:12:33.790Z,77.75
2023-04-14T05:14:55.237Z,77.38
2023-04-14T05:17:16.673Z,78.49
2023-04-14T05:19:38.982Z,77.82
2023-04-14T05:22:00.422Z,78.47
2023-04-14T05:24:22.108Z,79.24
2023-04-14T05:26:58.338Z,78.99
2023-04-14T05:29:25.003Z,78.31
2023-04-14T05:31:46.498Z,77.52
2023-04-14T05:34:08.048Z,77.56
2023-04-14T05:36:29.520Z,77.11
2023-04-14T05:38:51.285Z,77.43
2023-04-14T05:41:12.759Z,77.00
2023-04-14T05:43:34.282Z,77.01
2023-04-14T05:45:58.253Z,77.00
2023-04-14T05:48:19.688Z,76.64
2023-04-14T05:50:41.247Z,77.07
2023-04-14T05:53:02.747Z,79.40
2023-04-14T05:55:24.207Z,78.32
2023-04-14T05:57:45.677Z,79.10
2023-04-14T06:00:08.265Z,78.25
2023-04-14T06:02:29.797Z,80.75
2023-04-14T06:04:51.363Z,79.08
2023-04-14T06:07:12.870Z,80.58
2023-04-14T06:09:34.379Z,79.35
2023-04-14T06:11:56.662Z,78.95
2023-04-14T06:14:18.314Z,78.37
2023-04-14T06:16:39.810Z,80.30
2023-04-14T06:19:01.489Z,78.55
2023-04-14T06:21:23.232Z,79.66
2023-04-14T06:23:44.687Z,79.02
2023-04-14T06:26:06.758Z,78.16
2023-04-14T06:28:28.304Z,78.39
2023-04-14T06:30:49.951Z,79.44
2023-04-14T06:33:11.660Z,80.62
2023-04-14T06:35:35.101Z,79.54
2023-04-14T06:37:56.673Z,78.82
2023-04-14T06:40:18.224Z,78.93
2023-04-14T06:42:39.662Z,78.50
2023-04-14T06:45:01.123Z,78.93
2023-04-14T06:47:22.632Z,77.69
2023-04-14T06:49:44.119Z,78.72
2023-04-14T06:52:05.973Z,77.52
2023-04-14T06:54:27.457Z,78.30
2023-04-14T06:56:48.883Z,77.21
2023-04-14T06:59:10.490Z,77.73
2023-04-14T07:01:32.345Z,79.43
2023-04-14T07:03:53.834Z,79.93
2023-04-14T07:06:17.251Z,79.82
2023-04-14T07:08:40.600Z,81.04
2023-04-14T07:11:04.709Z,81.51
2023-04-14T07:13:26.221Z,82.67
2023-04-14T07:15:47.835Z,83.87
2023-04-14T07:18:09.506Z,83.81
2023-04-14T07:20:31.302Z,83.78
2023-04-14T07:22:52.769Z,80.25
2023-04-14T07:25:14.286Z,79.71
2023-04-14T07:27:35.794Z,79.34
2023-04-14T07:29:57.264Z,80.52
2023-04-14T07:32:18.764Z,79.09
2023-04-14T07:34:43.730Z,79.37
2023-04-14T07:37:06.291Z,79.57
2023-04-14T07:39:27.763Z,78.61
2023-04-14T07:41:49.182Z,78.18
2023-04-14T07:44:10.642Z,78.31
2023-04-14T07:46:32.104Z,76.72
2023-04-14T07:48:53.588Z,77.09
2023-04-14T07:51:15.114Z,76.95
2023-04-14T07:53:42.263Z,76.42
2023-04-14T07:56:05.822Z,74.77
2023-04-14T07:58:29.199Z,75.18
2023-04-14T08:00:51.555Z,75.96
2023-04-14T08:03:13.903Z,76.28
2023-04-14T08:05:36.203Z,75.53
2023-04-14T08:07:57.701Z,74.41
2023-04-14T08:10:19.189Z,72.92
2023-04-14T08:12:40.833Z,71.13
2023-04-14T08:15:02.308Z,71.38
2023-04-14T08:17:24.456Z,69.00
2023-04-14T08:19:46.931Z,68.68
2023-04-14T08:22:08.373Z,66.91
2023-04-14T08:24:29.823Z,66.76
2023-04-14T08:26:51.619Z,66.20
2023-04-14T08:29:13.217Z,64.28
2023-04-14T08:31:34.802Z,65.25
2023-04-14T08:33:57.253Z,64.77
2023-04-14T08:36:19.605Z,61.53
2023-04-14T08:38:41.163Z,62.72
2023-04-14T08:41:04.624Z,61.49
2023-04-14T08:43:26.125Z,60.40
2023-04-14T08:45:51.515Z,61.88
2023-04-14T08:48:16.371Z,61.11
2023-04-14T08:50:45.943Z,59.07
2023-04-14T08:53:09.763Z,58.19
2023-04-14T08:55:33.157Z,59.28
2023-04-14T08:57:55.359Z,60.40
2023-04-14T09:00:18.699Z,58.31
2023-04-14T09:02:40.744Z,59.99
2023-04-14T09:05:03.644Z,60.81
2023-04-14T09:07:25.364Z,60.10
2023-04-14T09:09:47.096Z,61.34
2023-04-14T09:12:08.626Z,62.28
2023-04-14T09:14:30.448Z,63.74
2023-04-14T09:16:53.926Z,64.47
2023-04-14T09:19:16.599Z,66.96
2023-04-14T09:21:53.809Z,67.21
2023-04-14T09:24:20.067Z,68.80
2023-04-14T09:26:42.669Z,69.10
2023-04-14T09:29:04.364Z,69.44
2023-04-14T09:31:27.088Z,70.53
2023-04-14T09:33:52.205Z,71.43
2023-04-14T09:36:21.731Z,71.40
2023-04-14T09:38:43.194Z,71.30
2023-04-14T09:41:08.690Z,70.68
2023-04-14T09:43:30.500Z,71.35
2023-04-14T09:45:52.008Z,70.90
2023-04-14T09:48:13.510Z,69.42
2023-04-14T09:50:58.326Z,67.22
2023-04-14T09:53:27.116Z,65.53
2023-04-14T09:55:50.983Z,63.87
2023-04-14T09:58:13.053Z,62.76
2023-04-14T10:00:34.509Z,59.82
2023-04-14T10:02:58.128Z,60.74
2023-04-14T10:05:20.760Z,59.83
2023-04-14T10:07:42.563Z,57.67
2023-04-14T10:10:10.101Z,54.46
2023-04-14T10:12:31.577Z,53.43
2023-04-14T10:14:53.032Z,52.06
2023-04-14T10:17:14.735Z,52.29
2023-04-14T10:19:37.802Z,51.10
2023-04-14T10:21:59.526Z,51.92
2023-04-14T10:24:21.658Z,51.93
2023-04-14T10:26:47.107Z,48.71
2023-04-14T10:29:26.841Z,48.96
2023-04-14T10:31:53.013Z,49.25
2023-04-14T10:34:16.192Z,48.14
2023-04-14T10:36:38.467Z,45.95
2023-04-14T10:39:03.112Z,45.56
2023-04-14T10:41:24.970Z,46.54
2023-04-14T10:43:46.873Z,45.85
2023-04-14T10:46:10.150Z,48.93
2023-04-14T10:48:34.505Z,48.24
2023-04-14T10:50:59.164Z,50.09
2023-04-14T10:53:20.725Z,49.16
2023-04-14T10:55:52.064Z,49.73
2023-04-14T10:58:23.331Z,49.60
2023-04-14T11:00:44.808Z,48.93
2023-04-14T11:03:13.323Z,47.99
2023-04-14T11:05:35.656Z,49.00
2023-04-14T11:08:00.798Z,48.73
2023-04-14T11:10:24.193Z,47.87
2023-04-14T11:12:47.572Z,48.21
2023-04-14T11:15:09.551Z,46.75
2023-04-14T11:17:33.225Z,45.47
2023-04-14T11:19:58.024Z,44.80
2023-04-14T11:22:40.094Z,44.54
2023-04-14T11:25:02.456Z,44.19
2023-04-14T11:27:24.044Z,45.34
2023-04-14T11:29:48.626Z,44.55
2023-04-14T11:32:10.138Z,44.06
2023-04-14T11:34:32.783Z,44.16
2023-04-14T11:36:55.108Z,44.01
2023-04-14T11:39:17.167Z,42.78
2023-04-14T11:41:38.976Z,43.22
2023-04-14T11:44:00.757Z,43.03
2023-04-14T11:46:22.438Z,43.53
2023-04-14T11:48:44.124Z,42.65
2023-04-14T11:51:06.193Z,43.00
2023-04-14T11:53:27.669Z,42.88
2023-04-14T11:55:50.747Z,42.99
2023-04-14T11:58:13.354Z,43.34
2023-04-14T12:00:34.938Z,42.44
2023-04-14T12:02:57.360Z,42.82
2023-04-14T12:05:33.927Z,41.27
2023-04-14T12:07:59.887Z,41.09
2023-04-14T12:10:22.253Z,40.74
2023-04-14T12:12:43.819Z,41.08
2023-04-14T12:15:05.964Z,39.39
2023-04-14T12:17:27.658Z,39.18
2023-04-14T12:19:49.120Z,38.52
2023-04-14T12:22:11.262Z,37.32
2023-04-14T12:24:43.199Z,36.23
2023-04-14T12:27:06.554Z,35.32
2023-04-14T12:29:28.073Z,36.91
2023-04-14T12:31:53.564Z,35.77
2023-04-14T12:34:15.075Z,35.81
2023-04-14T12:37:48.390Z,35.95
2023-04-14T12:39:22.429Z,38.15
2023-04-14T12:41:44.140Z,37.29
2023-04-14T12:44:16.192Z,37.79
2023-04-14T12:46:46.942Z,38.09
2023-04-14T12:49:37.781Z,38.13
2023-04-14T12:52:00.305Z,38.60
2023-04-14T12:54:23.014Z,36.98
2023-04-14T12:56:44.566Z,37.83
2023-04-14T12:59:06.012Z,36.39
2023-04-14T13:01:27.569Z,34.89
2023-04-14T13:03:52.537Z,35.34
2023-04-14T13:06:18.349Z,33.38
2023-04-14T13:08:44.747Z,33.43
2023-04-14T13:11:06.322Z,33.07
2023-04-14T13:13:27.895Z,31.74
2023-04-14T13:16:13.859Z,30.63
2023-04-14T13:18:31.536Z,31.51
2023-04-14T13:20:54.871Z,31.20
2023-04-14T13:23:16.644Z,31.99
2023-04-14T13:25:38.090Z,31.00
2023-04-14T13:27:59.598Z,32.12
2023-04-14T13:30:21.179Z,30.81
2023-04-14T13:32:42.729Z,32.51
2023-04-14T13:35:04.522Z,31.49
2023-04-14T13:37:26.111Z,31.21
2023-04-14T13:39:47.675Z,30.15
2023-04-14T13:42:09.184Z,30.02
2023-04-14T13:44:32.500Z,29.76
2023-04-14T13:46:55.196Z,30.15
2023-04-14T13:49:16.639Z,30.02
2023-04-14T13:51:40.838Z,30.32
2023-04-14T13:54:02.447Z,30.28
2023-04-14T13:56:25.707Z,31.40
2023-04-14T13:58:47.158Z,30.91
2023-04-14T14:01:10.534Z,31.24
2023-04-14T14:03:32.629Z,32.21
2023-04-14T14:05:54.241Z,33.52
2023-04-14T14:08:15.931Z,33.08
2023-04-14T14:10:37.422Z,33.21
2023-04-14T14:12:58.962Z,34.14
2023-04-14T14:15:20.509Z,35.10
2023-04-14T14:17:42.485Z,35.21
2023-04-14T14:20:04.300Z,34.49
2023-04-14T14:22:26.218Z,33.60
2023-04-14T14:24:47.698Z,34.21
2023-04-14T14:27:09.136Z,34.36
2023-04-14T14:29:30.620Z,32.56
2023-04-14T14:31:52.475Z,32.91
2023-04-14T14:34:13.984Z,31.99
2023-04-14T14:36:35.419Z,32.42
2023-04-14T14:38:56.963Z,32.77
2023-04-14T14:41:18.492Z,32.39
2023-04-14T14:43:39.993Z,33.02
2023-04-14T14:46:01.684Z,33.49
2023-04-14T14:48:23.410Z,34.27
2023-04-14T14:50:45.138Z,35.22
2023-04-14T14:53:07.020Z,34.62
2023-04-14T14:55:28.447Z,35.92
2023-04-14T14:57:51.070Z,35.73
2023-04-14T15:00:13.511Z,36.31
2023-04-14T15:02:35.599Z,36.58
2023-04-14T15:04:57.237Z,36.29
2023-04-14T15:07:18.830Z,35.76
2023-04-14T15:09:40.963Z,36.12
2023-04-14T15:12:02.457Z,35.71
2023-04-14T15:14:24.166Z,36.92
2023-04-14T15:16:46.181Z,36.47
2023-04-14T15:19:07.715Z,36.77
2023-04-14T15:21:29.243Z,38.19
2023-04-14T15:23:50.695Z,39.28
2023-04-14T15:26:16.099Z,39.14
2023-04-14T15:28:37.555Z,39.72
2023-04-14T15:30:58.999Z,38.37
2023-04-14T15:33:21.112Z,38.44
2023-04-14T15:35:42.564Z,38.51
2023-04-14T15:38:04.672Z,40.16
2023-04-14T15:40:26.377Z,41.62
2023-04-14T15:42:47.892Z,41.72
2023-04-14T15:45:09.718Z,41.43
2023-04-14T15:47:31.652Z,41.69
2023-04-14T15:50:08.882Z,42.32
2023-04-14T15:52:31.671Z,41.82
2023-04-14T15:54:53.134Z,41.32
2023-04-14T15:57:14.655Z,41.95
2023-04-14T15:59:36.389Z,41.85
2023-04-14T16:01:57.993Z,40.94
2023-04-14T16:04:19.736Z,40.68
2023-04-14T16:06:41.221Z,40.16
2023-04-14T16:09:02.899Z,39.83
2023-04-14T16:11:24.739Z,39.91
2023-04-14T16:13:46.305Z,40.23
2023-04-14T16:16:07.833Z,39.79
2023-04-14T16:18:29.322Z,39.33
2023-04-14T16:20:50.883Z,37.62
2023-04-14T16:23:12.336Z,37.40
2023-04-14T16:25:34.559Z,37.19
2023-04-14T16:27:56.007Z,37.40
2023-04-14T16:30:17.700Z,38.06
2023-04-14T16:32:39.214Z,38.03
2023-04-14T16:35:01.174Z,38.74
2023-04-14T16:37:25.949Z,38.21
2023-04-14T16:39:47.429Z,37.03
2023-04-14T16:42:09.563Z,37.12
2023-04-14T16:44:31.054Z,36.90
2023-04-14T16:46:53.192Z,36.79
2023-04-14T16:49:14.803Z,37.43
2023-04-14T16:51:37.931Z,38.17
2023-04-14T16:54:00.099Z,39.37
2023-04-14T16:56:22.810Z,39.50
2023-04-14T16:58:44.744Z,39.67
2023-04-14T17:01:06.812Z,39.76
2023-04-14T17:03:28.694Z,40.06
2023-04-14T17:05:50.418Z,41.12
2023-04-14T17:08:12.800Z,42.31
2023-04-14T17:10:35.106Z,42.87
2023-04-14T17:12:56.583Z,43.00
2023-04-14T17:15:18.264Z,43.57
2023-04-14T17:17:39.834Z,43.50
2023-04-14T17:20:01.809Z,44.23
2023-04-14T17:22:23.491Z,44.11
2023-04-14T17:24:45.779Z,44.52
2023-04-14T17:27:07.319Z,45.22
2023-04-14T17:29:29.561Z,45.10
2023-04-14T17:31:51.336Z,45.16
2023-04-14T17:34:13.137Z,45.49
2023-04-14T17:36:34.636Z,45.75
2023-04-14T17:38:56.530Z,46.04
2023-04-14T17:41:18.846Z,46.08
2023-04-14T17:43:41.479Z,46.12
2023-04-14T17:46:03.752Z,46.28
2023-04-14T17:48:25.792Z,46.71
2023-04-14T17:50:47.672Z,47.25
2023-04-14T17:53:09.322Z,47.79
2023-04-14T17:55:31.268Z,47.90
2023-04-14T17:57:53.765Z,47.87
2023-04-14T18:00:15.472Z,47.85
2023-04-14T18:02:39.338Z,48.26
2023-04-14T18:05:01.188Z,48.12
2023-04-14T18:07:22.706Z,48.44
2023-04-14T18:09:44.164Z,48.42
2023-04-14T18:12:06.031Z,48.67
2023-04-14T18:14:27.516Z,48.83
2023-04-14T18:16:48.997Z,48.86
2023-04-14T18:19:10.479Z,49.29
2023-04-14T18:21:31.961Z,49.53
2023-04-14T18:28:42.172Z,49.79
2023-04-14T18:31:04.312Z,50.06
2023-04-14T18:33:26.772Z,49.99
2023-04-14T18:35:53.042Z,50.31
2023-04-14T18:38:14.462Z,50.41
2023-04-14T18:40:38.108Z,50.47
2023-04-14T18:43:01.536Z,52.07
2023-04-14T18:45:22.987Z,52.30
2023-04-14T18:47:46.049Z,52.33
2023-04-14T18:50:07.833Z,52.17
2023-04-14T18:52:29.274Z,52.28
2023-04-14T18:54:51.252Z,52.46
2023-04-14T18:57:12.851Z,52.47
2023-04-14T18:59:34.712Z,52.79
2023-04-14T19:01:56.255Z,52.96
2023-04-14T19:04:17.840Z,54.71
2023-04-14T19:06:40.456Z,54.05
2023-04-14T19:09:04.280Z,53.86
2023-04-14T19:11:26.183Z,54.22
2023-04-14T19:13:47.719Z,53.77
2023-04-14T19:16:12.465Z,55.20
2023-04-14T19:18:34.363Z,56.03
2023-04-14T19:20:57.093Z,56.08
2023-04-14T19:23:19.451Z,55.45
2023-04-14T19:25:41.880Z,55.35
2023-04-14T19:28:03.352Z,55.14
2023-04-14T19:30:25.086Z,55.53
2023-04-14T19:32:46.575Z,55.26
2023-04-14T19:35:08.935Z,55.40
2023-04-14T19:37:31.893Z,55.59
2023-04-14T19:39:53.385Z,56.01
2023-04-14T19:42:14.830Z,56.23
2023-04-14T19:44:36.672Z,56.10
2023-04-14T19:46:58.162Z,56.36
2023-04-14T19:49:19.630Z,56.21
2023-04-14T19:51:41.202Z,56.29
2023-04-14T19:54:02.990Z,56.00
2023-04-14T19:56:24.535Z,56.90
2023-04-14T19:58:45.995Z,57.41
2023-04-14T20:01:07.461Z,56.89
2023-04-14T20:03:28.995Z,57.17
2023-04-14T20:05:52.783Z,57.96
2023-04-14T20:08:15.078Z,57.86
2023-04-14T20:10:36.732Z,57.59
2023-04-14T20:12:58.593Z,59.42
2023-04-14T20:15:20.062Z,59.75
2023-04-14T20:17:41.526Z,59.53
2023-04-14T20:20:05.846Z,59.47
2023-04-14T20:22:27.289Z,59.98
2023-04-14T20:24:48.725Z,60.10
2023-04-14T20:27:11.005Z,59.76
2023-04-14T20:29:33.361Z,59.70
2023-04-14T20:31:54.773Z,61.17
2023-04-14T20:34:16.614Z,60.36
2023-04-14T20:36:38.124Z,61.43
2023-04-14T20:38:59.842Z,60.89
2023-04-14T20:41:21.683Z,60.43
2023-04-14T20:43:43.590Z,61.82
2023-04-14T20:46:05.287Z,61.32
2023-04-14T20:48:27.017Z,62.55
2023-04-14T20:50:50.081Z,61.84
2023-04-14T20:53:11.571Z,62.06
2023-04-14T20:55:33.553Z,61.57
2023-04-14T20:57:55.007Z,61.35
2023-04-14T21:00:16.863Z,61.13
2023-04-14T21:02:38.911Z,62.72
2023-04-14T21:05:00.553Z,61.75
2023-04-14T21:07:22.073Z,61.89
2023-04-14T21:09:44.638Z,61.43
2023-04-14T21:12:14.720Z,61.28
2023-04-14T21:15:43.501Z,61.35
2023-04-14T21:17:18.511Z,61.61
2023-04-14T21:19:40.185Z,61.31
2023-04-14T21:22:02.063Z,61.50
2023-04-14T21:24:23.970Z,63.87
2023-04-14T21:26:46.029Z,62.76
2023-04-14T21:29:07.870Z,64.09
2023-04-14T21:31:29.351Z,63.66
2023-04-14T21:33:50.876Z,62.85
2023-04-14T21:36:12.366Z,62.63
2023-04-14T21:38:33.875Z,63.10
2023-04-14T21:40:55.743Z,62.95
2023-04-14T21:43:17.548Z,63.67
2023-04-14T21:45:39.072Z,64.93
2023-04-14T21:48:00.938Z,63.60
2023-04-14T21:50:22.602Z,63.57
2023-04-14T21:52:44.053Z,62.92
2023-04-14T21:55:05.672Z,64.72
2023-04-14T21:57:48.286Z,65.39
2023-04-14T22:00:13.302Z,64.16
2023-04-14T22:02:34.989Z,64.34
2023-04-14T22:04:56.550Z,64.00
2023-04-14T22:07:18.052Z,63.95
2023-04-14T22:09:41.198Z,64.67
2023-04-14T22:12:03.566Z,63.84
2023-04-14T22:14:25.070Z,63.28
2023-04-14T22:16:46.555Z,64.98
2023-04-14T22:19:09.123Z,65.29
2023-04-14T22:21:31.103Z,64.84
2023-04-14T22:23:52.712Z,65.35
2023-04-14T22:26:14.247Z,64.49
2023-04-14T22:28:36.825Z,64.29
2023-04-14T22:30:58.289Z,64.11
2023-04-14T22:33:19.850Z,64.33
2023-04-14T22:35:41.600Z,64.51
2023-04-14T22:38:03.076Z,65.67
2023-04-14T22:40:24.582Z,66.61
2023-04-14T22:42:46.519Z,68.11
2023-04-14T22:45:08.399Z,66.34
2023-04-14T22:47:29.925Z,65.80
2023-04-14T22:49:51.569Z,65.48
2023-04-14T22:52:13.173Z,65.42
2023-04-14T22:54:34.626Z,65.12
2023-04-14T22:56:56.079Z,64.73
2023-04-14T22:59:17.764Z,67.77
2023-04-14T23:01:39.349Z,66.62
2023-04-14T23:04:01.191Z,66.93
2023-04-14T23:06:23.001Z,66.69
2023-04-14T23:08:44.442Z,66.83
2023-04-14T23:11:05.907Z,67.10
2023-04-14T23:13:27.357Z,66.75
2023-04-14T23:15:52.856Z,67.50
2023-04-14T23:18:14.515Z,66.50
2023-04-14T23:20:36.359Z,66.42
2023-04-14T23:22:57.887Z,66.71
2023-04-14T23:25:19.348Z,68.75
2023-04-14T23:27:40.790Z,67.33
2023-04-14T23:30:02.317Z,66.64
2023-04-14T23:32:23.842Z,66.46
2023-04-14T23:34:45.565Z,68.83
2023-04-14T23:37:07.607Z,68.55
2023-04-14T23:39:29.390Z,67.87
2023-04-14T23:41:50.820Z,66.63
2023-04-14T23:44:12.492Z,66.95
2023-04-14T23:46:34.474Z,66.51
2023-04-14T23:48:56.549Z,67.93
2023-04-14T23:51:21.304Z,67.02
2023-04-14T23:53:43.706Z,66.97
2023-04-14T23:56:05.740Z,66.54
2023-04-14T23:58:30.175Z,66.84
